createdAt,value
2023-02-27T01:44:07.096Z,19.88
2023-02-27T01:46:37.536Z,20.20
2023-02-27T01:49:17.169Z,17.65
2023-02-27T01:51:55.346Z,16.70
2023-02-27T01:54:28.654Z,16.50
2023-02-27T01:56:58.962Z,16.30
2023-02-27T01:59:28.857Z,16.55
2023-02-27T02:01:59.860Z,17.35
2023-02-27T02:04:40.251Z,17.27
2023-02-27T02:07:15.350Z,16.75
2023-02-27T02:09:51.529Z,15.55
2023-02-27T02:12:24.831Z,15.40
2023-02-27T02:14:55.143Z,16.15
2023-02-27T02:18:04.033Z,16.55
2023-02-27T02:21:13.500Z,15.68
2023-02-27T02:24:22.342Z,14.07
2023-02-27T02:27:20.873Z,16.25
2023-02-27T02:30:29.787Z,13.98
2023-02-27T02:33:38.910Z,15.43
2023-02-27T02:36:48.107Z,16.08
2023-02-27T02:39:52.560Z,16.38
2023-02-27T02:42:47.784Z,16.25
2023-02-27T02:45:51.259Z,16.10
2023-02-27T02:48:56.548Z,15.32
2023-02-27T02:51:39.234Z,16.48
2023-02-27T02:54:34.736Z,16.02
2023-02-27T02:57:28.689Z,17.27
2023-02-27T03:00:21.190Z,15.50
2023-02-27T03:03:01.912Z,15.20
2023-02-27T03:05:38.705Z,14.75
2023-02-27T03:08:17.435Z,15.18
2023-02-27T03:11:02.075Z,14.73
2023-02-27T03:13:50.824Z,15.48
2023-02-27T03:16:46.044Z,14.65
2023-02-27T03:19:49.008Z,16.20
2023-02-27T03:22:25.827Z,15.48
2023-02-27T03:25:01.265Z,15.35
2023-02-27T03:27:38.283Z,14.25
2023-02-27T03:30:34.850Z,14.32
2023-02-27T03:33:15.695Z,15.43
2023-02-27T03:36:24.750Z,14.82
2023-02-27T03:39:07.522Z,14.55
2023-02-27T03:42:05.179Z,14.40
2023-02-27T03:44:46.773Z,13.90
2023-02-27T03:47:17.556Z,12.32
2023-02-27T03:49:47.574Z,14.18
2023-02-27T03:52:17.659Z,13.52
2023-02-27T03:54:57.071Z,14.07
2023-02-27T03:57:27.214Z,13.88
2023-02-27T03:59:57.711Z,13.27
2023-02-27T04:02:28.751Z,12.70
2023-02-27T04:04:58.685Z,13.68
2023-02-27T04:07:50.878Z,13.35
2023-02-27T04:10:59.771Z,14.60
2023-02-27T04:13:53.620Z,12.45
2023-02-27T04:16:50.380Z,13.63
2023-02-27T04:19:55.573Z,13.05
2023-02-27T04:22:41.348Z,12.32
2023-02-27T04:25:45.857Z,12.27
2023-02-27T04:28:47.231Z,11.10
2023-02-27T04:31:35.069Z,11.98
2023-02-27T04:34:30.838Z,12.40
2023-02-27T04:37:25.188Z,12.15
2023-02-27T04:40:07.506Z,13.15
2023-02-27T04:42:42.491Z,11.95
2023-02-27T04:45:16.433Z,11.52
2023-02-27T04:47:54.109Z,11.65
2023-02-27T04:50:33.046Z,11.68
2023-02-27T04:53:29.783Z,11.77
2023-02-27T04:56:12.963Z,12.32
2023-02-27T04:58:56.398Z,12.60
2023-02-27T05:01:45.906Z,11.60
2023-02-27T05:04:19.797Z,11.95
2023-02-27T05:06:51.877Z,12.57
2023-02-27T05:09:47.542Z,11.40
2023-02-27T05:12:43.583Z,11.95
2023-02-27T05:15:30.590Z,11.60
2023-02-27T05:18:08.510Z,11.27
2023-02-27T05:21:11.975Z,10.70
2023-02-27T05:24:20.960Z,11.32
2023-02-27T05:27:17.070Z,11.00
2023-02-27T05:29:56.589Z,10.38
2023-02-27T05:32:54.155Z,11.18
2023-02-27T05:35:59.576Z,12.10
2023-02-27T05:38:43.064Z,11.50
2023-02-27T05:41:21.473Z,11.85
2023-02-27T05:44:06.230Z,11.52
2023-02-27T05:46:45.033Z,15.25
2023-02-27T05:49:25.760Z,10.77
2023-02-27T05:51:59.430Z,11.20
2023-02-27T05:54:43.890Z,11.82
2023-02-27T05:57:20.116Z,11.52
2023-02-27T06:00:05.172Z,11.63
2023-02-27T06:02:35.386Z,10.95
2023-02-27T06:05:05.292Z,12.07
2023-02-27T06:07:35.938Z,11.52
2023-02-27T06:10:08.328Z,11.77
2023-02-27T06:12:38.364Z,12.40
2023-02-27T06:15:08.730Z,12.05
2023-02-27T06:17:38.775Z,11.63
2023-02-27T06:20:10.473Z,11.50
2023-02-27T06:22:40.501Z,12.75
2023-02-27T06:25:11.799Z,11.85
2023-02-27T06:27:42.124Z,12.82
2023-02-27T06:30:12.736Z,12.07
2023-02-27T06:32:42.897Z,11.38
2023-02-27T06:35:13.059Z,11.90
2023-02-27T06:37:43.072Z,13.10
2023-02-27T06:40:14.067Z,10.80
2023-02-27T06:42:45.391Z,11.82
2023-02-27T06:45:17.493Z,10.55
2023-02-27T06:47:47.501Z,10.85
2023-02-27T06:50:18.367Z,12.15
2023-02-27T06:52:48.455Z,12.65
2023-02-27T06:55:24.427Z,11.82
2023-02-27T06:57:54.413Z,11.95
2023-02-27T07:00:24.842Z,10.85
2023-02-27T07:02:54.837Z,10.50
2023-02-27T07:05:24.890Z,11.00
2023-02-27T07:07:54.626Z,11.32
2023-02-27T07:10:24.589Z,11.80
2023-02-27T07:12:54.745Z,12.63
2023-02-27T07:15:25.000Z,11.10
2023-02-27T07:17:56.455Z,11.43
2023-02-27T07:20:26.250Z,11.88
2023-02-27T07:22:56.063Z,12.00
2023-02-27T07:25:26.109Z,12.15
2023-02-27T07:27:57.006Z,11.23
2023-02-27T07:30:26.997Z,11.73
2023-02-27T07:32:57.051Z,11.30
2023-02-27T07:35:27.336Z,11.93
2023-02-27T07:37:57.136Z,11.80
2023-02-27T07:40:27.047Z,12.18
2023-02-27T07:42:57.039Z,11.45
2023-02-27T07:45:26.992Z,12.00
2023-02-27T07:47:56.839Z,11.55
2023-02-27T07:50:27.857Z,10.73
2023-02-27T07:52:58.102Z,11.38
2023-02-27T07:55:27.975Z,11.52
2023-02-27T07:57:57.916Z,12.23
2023-02-27T08:00:27.948Z,11.85
2023-02-27T08:02:57.749Z,11.70
2023-02-27T08:05:27.644Z,11.00
2023-02-27T08:07:57.828Z,11.48
2023-02-27T08:10:28.381Z,12.07
2023-02-27T08:12:58.338Z,12.20
2023-02-27T08:15:28.232Z,12.95
2023-02-27T08:17:57.997Z,11.50
2023-02-27T08:20:27.862Z,11.75
2023-02-27T08:23:00.712Z,10.98
2023-02-27T08:25:31.964Z,11.82
2023-02-27T08:28:01.892Z,11.52
2023-02-27T08:30:31.986Z,11.15
2023-02-27T08:33:02.117Z,10.32
2023-02-27T08:35:32.417Z,10.90
2023-02-27T08:38:02.256Z,11.75
2023-02-27T08:40:31.910Z,10.95
2023-02-27T08:43:01.929Z,11.38
2023-02-27T08:45:31.860Z,11.07
2023-02-27T08:48:01.675Z,12.50
2023-02-27T08:50:32.596Z,11.90
2023-02-27T08:53:02.496Z,11.52
2023-02-27T08:55:32.400Z,11.38
2023-02-27T08:58:02.520Z,14.10
2023-02-27T09:00:34.204Z,18.30
2023-02-27T09:03:04.288Z,21.65
2023-02-27T09:05:36.945Z,13.15
2023-02-27T09:08:09.019Z,12.75
2023-02-27T09:10:39.138Z,12.75
2023-02-27T09:13:08.950Z,11.20
2023-02-27T09:15:39.678Z,12.05
2023-02-27T09:18:09.689Z,11.30
2023-02-27T09:20:39.638Z,11.45
2023-02-27T09:23:09.974Z,11.65
2023-02-27T09:25:40.019Z,11.23
2023-02-27T09:28:10.037Z,11.45
2023-02-27T09:30:39.824Z,11.45
2023-02-27T09:33:09.682Z,11.55
2023-02-27T09:35:40.122Z,12.65
2023-02-27T09:38:10.424Z,11.13
2023-02-27T09:40:43.912Z,11.57
2023-02-27T09:43:22.921Z,10.98
2023-02-27T09:45:57.994Z,11.85
2023-02-27T09:48:57.817Z,12.05
2023-02-27T09:51:30.387Z,12.68
2023-02-27T09:54:03.969Z,12.13
2023-02-27T09:56:42.826Z,11.88
2023-02-27T09:59:42.216Z,12.00
2023-02-27T10:02:43.165Z,12.32
2023-02-27T10:05:37.831Z,12.25
2023-02-27T10:08:24.185Z,11.05
2023-02-27T10:11:09.558Z,13.10
2023-02-27T10:14:03.485Z,12.95
2023-02-27T10:16:36.022Z,11.93
2023-02-27T10:19:09.781Z,12.20
2023-02-27T10:21:44.125Z,12.48
2023-02-27T10:24:39.357Z,12.40
2023-02-27T10:27:15.729Z,12.48
2023-02-27T10:29:45.776Z,12.13
2023-02-27T10:32:23.080Z,11.27
2023-02-27T10:35:29.123Z,13.77
2023-02-27T10:38:04.054Z,12.38
2023-02-27T10:40:37.247Z,12.30
2023-02-27T10:43:09.113Z,12.25
2023-02-27T10:45:39.154Z,12.48
2023-02-27T10:48:10.240Z,12.70
2023-02-27T10:50:47.160Z,12.80
2023-02-27T10:53:28.808Z,13.65
2023-02-27T10:56:12.571Z,13.30
2023-02-27T10:58:42.592Z,13.48
2023-02-27T11:01:13.626Z,11.88
2023-02-27T11:03:50.497Z,12.73
2023-02-27T11:06:29.820Z,14.68
2023-02-27T11:09:24.424Z,19.25
2023-02-27T11:11:55.020Z,25.02
2023-02-27T11:14:34.885Z,23.20
2023-02-27T11:17:06.057Z,30.23
2023-02-27T11:19:41.312Z,31.95
2023-02-27T11:22:23.214Z,30.48
2023-02-27T11:24:54.985Z,29.67
2023-02-27T11:27:28.814Z,29.85
2023-02-27T11:30:01.434Z,38.47
2023-02-27T11:32:46.096Z,48.17
2023-02-27T11:35:37.251Z,51.42
2023-02-27T11:38:28.157Z,61.78
2023-02-27T11:41:01.768Z,67.05
2023-02-27T11:43:36.544Z,69.20
2023-02-27T11:46:36.734Z,71.03
2023-02-27T11:49:32.442Z,73.15
2023-02-27T11:52:15.577Z,59.60
2023-02-27T11:54:57.961Z,43.38
2023-02-27T11:57:35.850Z,30.23
2023-02-27T12:00:31.722Z,24.98
2023-02-27T12:03:24.959Z,19.55
2023-02-27T12:06:01.224Z,17.98
2023-02-27T12:08:49.482Z,16.95
2023-02-27T12:11:29.943Z,16.60
2023-02-27T12:14:18.745Z,15.77
2023-02-27T12:17:00.186Z,17.50
2023-02-27T12:19:47.693Z,19.08
2023-02-27T12:22:39.370Z,17.63
2023-02-27T12:25:16.771Z,14.93
2023-02-27T12:28:22.853Z,16.90
2023-02-27T12:31:32.120Z,16.42
2023-02-27T12:34:28.233Z,16.17
2023-02-27T12:37:07.767Z,15.65
2023-02-27T12:39:37.478Z,17.60
2023-02-27T12:42:35.772Z,17.65
2023-02-27T12:45:33.820Z,17.77
2023-02-27T12:48:31.746Z,18.67
2023-02-27T12:54:29.769Z,18.08
2023-02-27T12:57:26.344Z,18.10
2023-02-27T13:00:21.359Z,16.33
2023-02-27T13:03:20.513Z,19.27
2023-02-27T13:06:20.881Z,20.90
2023-02-27T13:09:23.710Z,21.95
2023-02-27T13:12:17.810Z,23.05
2023-02-27T13:15:08.935Z,21.20
2023-02-27T13:17:55.009Z,20.67
2023-02-27T13:20:52.332Z,23.02
2023-02-27T13:23:32.067Z,22.25
2023-02-27T13:26:03.797Z,21.75
2023-02-27T13:28:34.653Z,24.08
2023-02-27T13:31:30.414Z,22.63
2023-02-27T13:34:39.651Z,23.00
2023-02-27T13:37:11.118Z,27.10
2023-02-27T13:39:55.340Z,24.05
2023-02-27T13:42:55.455Z,24.20
2023-02-27T13:45:52.509Z,27.92
2023-02-27T13:48:41.912Z,28.23
2023-02-27T13:51:33.552Z,25.95
2023-02-27T13:54:26.372Z,25.85
2023-02-27T13:57:21.385Z,26.77
2023-02-27T13:59:57.917Z,27.70
2023-02-27T14:02:59.943Z,28.02
2023-02-27T14:05:41.131Z,26.70
2023-02-27T14:08:26.788Z,27.00
2023-02-27T14:11:15.393Z,28.10
2023-02-27T14:14:05.917Z,27.92
2023-02-27T14:16:55.634Z,27.90
2023-02-27T14:19:45.341Z,27.60
2023-02-27T14:22:35.602Z,25.77
2023-02-27T14:25:33.622Z,25.75
2023-02-27T14:30:44.611Z,23.42
2023-02-27T14:33:40.399Z,24.13
2023-02-27T14:36:24.794Z,22.90
2023-02-27T14:38:59.488Z,23.83
2023-02-27T14:41:58.375Z,23.42
2023-02-27T14:44:31.918Z,24.50
2023-02-27T14:47:05.093Z,24.35
2023-02-27T14:49:37.490Z,26.67
2023-02-27T14:52:23.785Z,25.33
2023-02-27T14:54:55.192Z,26.05
2023-02-27T14:57:29.934Z,26.17
2023-02-27T15:00:00.029Z,26.48
2023-02-27T15:02:39.370Z,29.33
2023-02-27T15:05:22.794Z,26.13
2023-02-27T15:07:54.359Z,25.42
2023-02-27T15:10:35.677Z,27.13
2023-02-27T15:13:07.191Z,26.40
2023-02-27T15:15:37.158Z,27.45
2023-02-27T15:18:16.673Z,25.65
2023-02-27T15:20:46.714Z,26.10
2023-02-27T15:23:27.892Z,28.25
2023-02-27T15:26:00.012Z,29.48
2023-02-27T15:28:38.286Z,29.08
2023-02-27T15:33:39.567Z,28.38
2023-02-27T15:36:11.407Z,30.15
2023-02-27T15:38:41.385Z,29.92
2023-02-27T15:41:14.996Z,29.95
2023-02-27T15:43:45.556Z,27.95
2023-02-27T15:46:15.699Z,29.38
2023-02-27T15:48:45.624Z,30.17
2023-02-27T15:51:15.690Z,30.95
2023-02-27T15:53:52.525Z,32.38
2023-02-27T15:56:28.472Z,34.40
2023-02-27T15:59:02.890Z,32.33
2023-02-27T16:01:36.605Z,32.08
2023-02-27T16:04:18.030Z,31.05
2023-02-27T16:07:03.176Z,32.95
2023-02-27T16:09:38.882Z,31.63
2023-02-27T16:12:39.107Z,30.63
2023-02-27T16:15:36.509Z,31.58
2023-02-27T16:18:31.471Z,33.90
2023-02-27T16:21:13.087Z,34.50
2023-02-27T16:23:43.450Z,36.03
2023-02-27T16:26:34.444Z,34.25
2023-02-27T16:29:26.270Z,34.42
2023-02-27T16:31:58.746Z,34.10
2023-02-27T16:34:47.815Z,34.17
2023-02-27T16:37:39.868Z,32.70
2023-02-27T16:40:26.892Z,34.20
2023-02-27T16:42:56.885Z,35.47
2023-02-27T16:45:29.551Z,35.80
2023-02-27T16:48:01.601Z,33.95
2023-02-27T16:50:40.698Z,34.35
2023-02-27T16:53:10.786Z,36.08
2023-02-27T16:55:45.358Z,35.90
2023-02-27T16:58:18.166Z,36.88
2023-02-27T17:00:48.864Z,36.92
2023-02-27T17:03:19.257Z,36.75
2023-02-27T17:05:50.529Z,36.13
2023-02-27T17:08:21.294Z,35.88
2023-02-27T17:10:51.258Z,37.30
2023-02-27T17:13:21.286Z,37.47
2023-02-27T17:15:51.091Z,38.47
2023-02-27T17:18:21.165Z,40.30
2023-02-27T17:20:53.007Z,41.22
2023-02-27T17:23:23.015Z,38.05
2023-02-27T17:25:54.345Z,39.83
2023-02-27T17:28:25.385Z,40.20
2023-02-27T17:30:56.599Z,40.42
2023-02-27T17:33:26.711Z,39.22
2023-02-27T17:36:05.341Z,37.38
2023-02-27T17:38:35.423Z,43.33
2023-02-27T17:41:12.837Z,42.05
2023-02-27T17:43:46.195Z,48.13
2023-02-27T17:46:16.472Z,44.53
2023-02-27T17:48:46.472Z,44.42
2023-02-27T17:51:18.551Z,48.40
2023-02-27T17:53:48.692Z,46.03
2023-02-27T17:56:18.805Z,46.65
2023-02-27T17:58:48.792Z,49.30
2023-02-27T18:05:20.713Z,47.25
2023-02-27T18:07:50.462Z,47.58
2023-02-27T18:10:20.256Z,47.28
2023-02-27T18:12:49.998Z,47.05
2023-02-27T18:15:19.940Z,46.88
2023-02-27T18:17:49.672Z,49.95
2023-02-27T18:20:19.488Z,47.15
2023-02-27T18:22:49.295Z,49.03
2023-02-27T18:25:19.157Z,48.72
2023-02-27T18:27:48.846Z,47.65
2023-02-27T18:30:21.947Z,48.65
2023-02-27T18:32:51.929Z,51.88
2023-02-27T18:35:22.385Z,52.83
2023-02-27T18:37:52.046Z,51.35
2023-02-27T18:40:26.188Z,51.95
2023-02-27T18:42:55.887Z,52.28
2023-02-27T18:45:26.320Z,48.95
2023-02-27T18:47:56.476Z,50.50
2023-02-27T18:50:26.956Z,54.55
2023-02-27T18:52:57.878Z,55.20
2023-02-27T18:55:27.580Z,57.50
2023-02-27T18:57:57.101Z,55.28
2023-02-27T19:00:26.879Z,57.47
2023-02-27T19:02:56.527Z,56.28
2023-02-27T19:05:27.064Z,56.75
2023-02-27T19:07:56.735Z,54.38
2023-02-27T19:10:26.338Z,54.83
2023-02-27T19:12:56.262Z,53.05
2023-02-27T19:15:26.027Z,53.47
2023-02-27T19:17:56.428Z,57.45
2023-02-27T19:20:26.112Z,55.88
2023-02-27T19:22:55.773Z,54.70
2023-02-27T19:25:25.334Z,55.22
2023-02-27T19:27:58.791Z,55.05
2023-02-27T19:30:28.562Z,57.20
2023-02-27T19:32:58.242Z,55.45
2023-02-27T19:35:29.920Z,57.63
2023-02-27T19:38:00.468Z,58.67
2023-02-27T19:40:30.320Z,58.97
2023-02-27T19:43:00.424Z,54.83
2023-02-27T19:45:32.776Z,55.13
2023-02-27T19:48:03.219Z,56.35
2023-02-27T19:50:32.957Z,60.10
2023-02-27T19:53:03.135Z,58.35
2023-02-27T19:55:32.987Z,57.80
2023-02-27T19:58:03.152Z,58.95
2023-02-27T20:00:33.028Z,58.78
2023-02-27T20:03:02.865Z,59.97
2023-02-27T20:05:33.574Z,60.35
2023-02-27T20:08:03.350Z,58.15
2023-02-27T20:10:33.227Z,59.78
2023-02-27T20:13:02.848Z,59.95
2023-02-27T20:15:32.676Z,58.63
2023-02-27T20:18:02.421Z,59.15
2023-02-27T20:20:32.193Z,58.38
2023-02-27T20:23:01.831Z,59.75
2023-02-27T20:25:32.338Z,62.67
2023-02-27T20:28:02.020Z,58.75
2023-02-27T20:30:31.649Z,60.80
2023-02-27T20:33:01.701Z,58.97
2023-02-27T20:35:31.688Z,58.15
2023-02-27T20:38:01.335Z,59.63
2023-02-27T20:40:31.331Z,59.38
2023-02-27T21:43:34.270Z,60.65
2023-02-27T21:46:10.373Z,62.50
2023-02-27T21:48:40.362Z,64.25
2023-02-27T21:51:10.073Z,67.35
2023-02-27T21:53:39.879Z,67.22
2023-02-27T21:56:11.720Z,68.22
2023-02-27T21:58:42.315Z,67.82
2023-02-27T22:01:17.352Z,70.20
2023-02-27T22:03:48.384Z,73.05
2023-02-27T22:06:19.088Z,71.18
2023-02-27T22:08:48.922Z,72.60
2023-02-27T22:11:18.529Z,74.30
2023-02-27T22:13:48.178Z,73.30
2023-02-27T22:16:18.072Z,73.50
2023-02-27T22:18:48.206Z,75.95
2023-02-27T22:21:24.520Z,75.10
2023-02-27T22:23:54.852Z,77.32
2023-02-27T22:26:27.122Z,74.15
2023-02-27T22:28:59.217Z,77.32
2023-02-27T22:31:31.747Z,77.72
2023-02-27T22:34:12.452Z,78.05
2023-02-27T22:36:43.802Z,78.30
2023-02-27T22:39:14.483Z,78.07
2023-02-27T22:41:44.915Z,78.18
2023-02-27T22:48:59.206Z,76.57
2023-02-27T22:56:11.581Z,77.57
2023-02-27T23:10:23.181Z,73.85
2023-02-27T23:17:34.756Z,79.93
